Ithaca, Ohio
Current Conditions -  °F | °C
As of 12:55 PM on Saturday 25 Oct 2014 (Local Time) from KVES Reporting Station
Clear Clear  
Wind Chill: 70°   Ceiling: Unl
Heat Index: 70°   Visibility: 10mi
Dew Point: 55°   Wind: 12mph
Humidity: 60%   Direction: 260°W
Pressure: 29.91"   Gusts: 21mph
Location:  39.9886°N, 84.5328°W
Report Text: KVES 251655Z AUTO 26010G18KT 10SM CLR 21/13 A2991 RMK AO2
Loading
Personal Weather Stations






























Interactive Weather Map
Tropical Storm Tracking
New forecast layout! Learn more

10-Day Weather Forecast

Advertisements
Track Severe Weather on mobile